Flight Track Log - Related Links

Times and Time Zones

All times are in EDT time to prevent confusion due to time zone crossing. See the GGN7280 flight status page for this flight to view local times or setup timezone preferences in your user account.

Time Position Orientation Groundspeed Altitude Reporting Facility
EDT Latitude Longitude Course Direction KTS MPH feet Rate Location/Type
Fri 10:05:50 AM 43.6500 -79.5833 125° Southeast 140 161 1,700  Level Toronto Center
Fri 10:06:50 AM 43.6000 -79.5667 166° South 160 184 3,700 1,650 Climbing Toronto Center
Fri 10:07:50 AM 43.5833 -79.5000 109° East 200 230 5,000 1,500 Climbing Toronto Center
Fri 10:08:50 AM 43.5667 -79.4333 109° East 210 242 6,700 1,550 Climbing Toronto Center
Fri 10:09:50 AM 43.5500 -79.3500 105° East 210 242 8,100 1,600 Climbing Toronto Center
Fri 10:10:50 AM 43.5333 -79.2667 105° East 220 253 9,900 1,800 Climbing Toronto Center
Fri 10:11:00 AM 43.5926 -79.0021 125° Southeast  Level Estimated
Fri 10:11:50 AM 43.5167 -79.2000 109° East 220 253 11,700  Level Toronto Center
Fri 10:12:50 AM 43.5000 -79.1000 103° East 230 265 13,200 1,600 Climbing Toronto Center
Fri 10:13:50 AM 43.4833 -79.0167 105° East 240 276 14,900 1,500 Climbing Toronto Center
Fri 10:14:50 AM 43.4833 -78.9167 90° East 250 288 16,200 1,350 Climbing Toronto Center
Fri 10:15:50 AM 43.4667 -78.8333 105° East 250 288 17,600 1,500 Climbing Toronto Center
Fri 10:16:50 AM 43.4500 -78.7333 103° East 250 288 19,200 1,450 Climbing Toronto Center
Fri 10:17:50 AM 43.4500 -78.6500 90° East 240 276 20,500 1,186 Climbing Toronto Center
Fri 10:18:16 AM 43.4481 -78.6217 95° East 238 274 20,900 1,047 Climbing Cleveland Center
Fri 10:19:16 AM 43.4361 -78.5306 100° East 238 274 22,000 1,050 Climbing Cleveland Center
Fri 10:20:16 AM 43.4261 -78.4394 99° East 238 274 23,000 500 Climbing Cleveland Center
Fri 10:21:16 AM 43.4139 -78.3369 99° East 244 281 23,000  Level Cleveland Center
Fri 10:22:16 AM 43.3992 -78.2289 101° East 267 307 23,000  Level Cleveland Center
Fri 10:23:16 AM 43.3864 -78.1208 99° East 278 320 23,000  Level Cleveland Center
Fri 10:24:16 AM 43.3736 -78.0128 99° East 283 326 23,000  Level Cleveland Center
Fri 10:25:16 AM 43.3608 -77.9078 99° East 283 326 23,000  Level Cleveland Center
Fri 10:26:16 AM 43.3458 -77.7969 101° East 283 326 23,000  Level Cleveland Center
Fri 10:27:16 AM 43.3286 -77.6894 102° East 283 326 23,000 -50 Level Cleveland Center
Fri 10:28:16 AM 43.3133 -77.5817 101° East 283 326 22,900  Descending Cleveland Center
Fri 10:29:16 AM 43.3022 -77.4736 98° East 283 326 23,000 39 Climbing Cleveland Center
Fri 10:30:50 AM 43.2667 -77.2667 103° East 290 334 23,000  Level Toronto Center
Fri 10:31:50 AM 43.2500 -77.1667 103° East 290 334 23,000 -50 Level Toronto Center
Fri 10:32:50 AM 43.2333 -77.0667 103° East 290 334 22,900  Descending Toronto Center
Fri 10:33:50 AM 43.2333 -76.9500 90° East 290 334 23,000 50 Climbing Toronto Center
Fri 10:34:50 AM 43.2167 -76.8500 103° East 280 322 23,000  Level Toronto Center
Fri 10:35:50 AM 43.2000 -76.7500 103° East 290 334 23,000  Level Toronto Center
Fri 10:36:50 AM 43.1833 -76.6333 101° East 290 334 23,000  Level Toronto Center
Fri 10:37:50 AM 43.1667 -76.5167 101° East 290 334 23,000  Level Toronto Center
Fri 10:38:50 AM 43.1500 -76.4333 105° East 290 334 23,000  Level Toronto Center
Fri 10:39:50 AM 43.1333 -76.3167 101° East 290 334 23,000  Level Toronto Center
Fri 10:40:50 AM 43.1167 -76.2000 101° East 290 334 23,000  Level Toronto Center
Fri 10:41:55 AM 43.1142 -76.1239 93° East 281 323 23,000  Level Boston Center
Fri 10:42:55 AM 43.0986 -76.0206 102° East 281 323 23,000  Level Boston Center
Fri 10:43:55 AM 43.0811 -75.9142 103° East 281 323 23,000  Level Boston Center
Fri 10:44:55 AM 43.0697 -75.8083 98° East 281 323 23,000  Level Boston Center
Fri 10:45:55 AM 43.0519 -75.7050 103° East 281 323 23,000  Level Boston Center
Fri 10:46:55 AM 43.0378 -75.6106 102° East 281 323 23,000  Level Boston Center
Fri 10:47:55 AM 43.0200 -75.5044 103° East 281 323 23,000  Level Boston Center
Fri 10:48:55 AM 43.0061 -75.3986 100° East 276 318 23,000 -300 Level Boston Center
Fri 10:49:55 AM 43.0025 -75.2906 93° East 282 325 22,400 -1,100 Descending Boston Center
Fri 10:50:55 AM 42.9947 -75.1794 95° East 282 325 20,800 -1,600 Descending Boston Center
Fri 10:51:55 AM 42.9911 -75.0714 116° Southeast 282 325 19,200 -1,400 Descending Boston Center
Fri 10:52:00 AM 42.9615 -75.0884 116° Southeast  Level FlightAware Approximate
Fri 10:52:55 AM 42.9936 -74.9608 88° East 282 325 18,000  Level Boston Center
Fri 10:53:55 AM 42.9917 -74.8586 91° East 282 325 16,800 -1,350 Descending Boston Center
Fri 10:54:55 AM 42.9900 -74.7308 91° East 292 336 15,300 -1,350 Descending Boston Center
Fri 10:55:55 AM 42.9878 -74.6314 92° East 292 336 14,100 -1,550 Descending Boston Center
Fri 10:56:55 AM 42.9861 -74.5036 91° East 292 336 12,200 -1,857 Descending Boston Center
Fri 10:57:19 AM 42.9867 -74.4667 89° East 301 346 11,500 -1,300 Descending Boston Center
Fri 10:57:55 AM 42.9878 -74.4042 89° East 292 336 10,900 -1,377 Descending Boston Center
Fri 10:58:20 AM 42.9908 -74.3561 85° East 290 334 10,100 -1,800 Descending Boston Center
Fri 10:58:55 AM 42.9919 -74.2853 89° East 287 330 9,100 -1,636 Descending Boston Center
Fri 10:59:15 AM 42.9944 -74.2569 83° East 283 326 8,600 -1,300 Descending Boston Center
Fri 10:59:55 AM 42.9975 -74.1917 86° East 287 330 7,800 -1,300 Descending Boston Center
Fri 11:00:15 AM 42.9983 -74.1492 88° East 277 319 7,300 -1,600 Descending Boston Center
Fri 11:00:55 AM 43.0033 -74.0783 84° East 277 319 6,200 -1,377 Descending Boston Center
Fri 11:01:16 AM 43.0039 -74.0469 89° East 270 311 5,900 -1,000 Descending Boston Center
Fri 11:01:55 AM 43.0025 -73.9872 92° East 271 312 5,200 -1,180 Descending Boston Center
Fri 11:02:17 AM 42.9906 -73.9472 112° Southeast 262 302 4,700 -1,100 Descending Boston Center
Fri 11:02:55 AM 42.9600 -73.9039 134° Southeast 246 283 4,100 -800 Descending Boston Center
Fri 11:03:17 AM 42.9414 -73.8867 146° Southeast 232 267 3,900 -500 Descending Boston Center
Fri 11:03:55 AM 42.9106 -73.8603 148° Southeast 230 265 3,600 -269 Descending Boston Center
Fri 11:04:24 AM 42.8836 -73.8369 148° Southeast 214 246 3,600 -100 Level Boston Center
Fri 11:04:55 AM 42.8631 -73.8194 148° Southeast 218 251 3,500 -787 Descending Boston Center
Fri 11:05:25 AM 42.8297 -73.8075 165° South 202 232 2,800 -700 Descending Boston Center
Fri 11:05:55 AM 42.8053 -73.7814 142° Southeast 213 245 2,800 -1,612 Level Boston Center
Fri 11:06:32 AM 42.7839 -73.8064 221° Southwest 119 137 1,000 -2,919 Descending Boston Center

Login

Don't have an account? Register now (free) for customized features, flight alerts, and more!